Richland Hills, Texas
Current Conditions -  °F | °C
As of 7:53 PM on Friday 28 Nov 2014 (Local Time) from KFTW Reporting Station
Clear Clear  
Wind Chill: 63°   Ceiling: Unl
Heat Index: 63°   Visibility: 10mi
Dew Point: 48°   Wind: 14mph
Humidity: 58%   Direction: 180°S
Pressure: 30"   Gusts: NA
Location:  32.8656°N, 97.2164°W
Report Text: KFTW 290153Z 18012KT 10SM CLR 17/09 A3000 RMK AO2 SLP155 T01720089
Loading
Personal Weather Stations






























Interactive Weather Map New forecast layout! Learn more

10-Day Weather Forecast

Advertisements
Track Severe Weather on mobile